createdAt,value
2018-02-08T00:00:48.276Z,-1.21
2018-02-08T00:01:53.789Z,-1.28
2018-02-08T00:02:59.251Z,-1.27
2018-02-08T00:04:04.778Z,-1.35
2018-02-08T00:05:11.299Z,-1.30
2018-02-08T00:06:15.789Z,-1.33
2018-02-08T00:07:21.298Z,-1.33
2018-02-08T00:08:26.782Z,-1.35
2018-02-08T00:09:32.269Z,-1.35
2018-02-08T00:10:38.618Z,-1.33
2018-02-08T00:11:44.334Z,-1.43
2018-02-08T00:12:48.785Z,-1.36
2018-02-08T00:13:54.296Z,-1.39
2018-02-08T00:14:59.840Z,-1.46
2018-02-08T00:16:05.330Z,-1.46
2018-02-08T00:17:10.801Z,-1.43
2018-02-08T00:18:17.307Z,-1.39
2018-02-08T00:19:21.879Z,-1.49
2018-02-08T00:20:27.512Z,-1.41
2018-02-08T00:21:32.976Z,-1.42
2018-02-08T00:22:39.194Z,-1.48
2018-02-08T00:23:44.023Z,-1.49
2018-02-08T00:24:50.290Z,-1.48
2018-02-08T00:25:54.815Z,-1.48
2018-02-08T00:27:00.325Z,-1.46
2018-02-08T00:28:05.854Z,-1.54
2018-02-08T00:29:11.370Z,-1.59
2018-02-08T00:30:16.827Z,-1.56
2018-02-08T00:31:23.397Z,-1.57
2018-02-08T00:32:27.868Z,-1.59
2018-02-08T00:33:33.343Z,-1.53
2018-02-08T00:34:38.985Z,-1.59
2018-02-08T00:35:44.331Z,-1.62
2018-02-08T00:36:49.841Z,-1.59
2018-02-08T00:37:56.356Z,-1.63
2018-02-08T00:39:00.837Z,-1.60
2018-02-08T00:40:06.342Z,-1.63
2018-02-08T00:41:11.838Z,-1.60
2018-02-08T00:42:17.407Z,-1.63
2018-02-08T00:43:22.988Z,-1.66
2018-02-08T00:44:29.612Z,-1.63
2018-02-08T00:45:33.865Z,-1.60
2018-02-08T00:46:39.513Z,-1.66
2018-02-08T00:47:44.860Z,-1.62
2018-02-08T00:48:50.362Z,-1.64
2018-02-08T00:49:55.858Z,-1.70
2018-02-08T00:51:02.361Z,-1.67
2018-02-08T00:52:06.856Z,-1.67
2018-02-08T00:53:12.361Z,-1.64
2018-02-08T00:54:17.854Z,-1.77
2018-02-08T00:55:23.362Z,-1.74
2018-02-08T00:56:28.861Z,-1.69
2018-02-08T00:57:35.365Z,-1.74
2018-02-08T00:58:39.870Z,-1.72
2018-02-08T00:59:45.373Z,-1.72
2018-02-08T01:00:51.007Z,-1.77
2018-02-08T01:01:57.311Z,-1.75
2018-02-08T01:03:01.874Z,-1.75
2018-02-08T01:04:08.448Z,-1.74
2018-02-08T01:05:12.880Z,-1.75
2018-02-08T01:06:18.378Z,-1.80
2018-02-08T01:07:24.129Z,-1.78
2018-02-08T01:08:29.385Z,-1.84
2018-02-08T01:09:34.893Z,-1.75
2018-02-08T01:10:41.385Z,-1.82
2018-02-08T01:11:45.889Z,-1.85
2018-02-08T01:12:51.398Z,-1.82
2018-02-08T01:13:56.906Z,-1.88
2018-02-08T01:15:02.419Z,-1.87
2018-02-08T01:16:07.890Z,-1.82
2018-02-08T01:17:14.413Z,-1.90
2018-02-08T01:18:18.906Z,-1.95
2018-02-08T01:19:24.402Z,-1.82
2018-02-08T01:20:29.898Z,-1.82
2018-02-08T01:21:35.412Z,-1.84
2018-02-08T01:22:40.911Z,-1.90
2018-02-08T01:23:47.434Z,-1.95
2018-02-08T01:24:51.916Z,-1.98
2018-02-08T01:25:57.415Z,-1.85
2018-02-08T01:27:02.913Z,-1.95
2018-02-08T01:28:08.422Z,-1.99
2018-02-08T01:29:13.922Z,-1.90
2018-02-08T01:30:20.439Z,-1.98
2018-02-08T01:31:24.928Z,-2.02
2018-02-08T01:32:30.439Z,-2.03
2018-02-08T01:33:35.927Z,-1.93
2018-02-08T01:34:41.432Z,-2.02
2018-02-08T01:35:46.937Z,-2.05
2018-02-08T01:36:53.436Z,-2.00
2018-02-08T01:37:57.939Z,-2.06
2018-02-08T01:39:03.438Z,-2.02
2018-02-08T01:40:08.970Z,-2.05
2018-02-08T01:41:14.443Z,-1.96
2018-02-08T01:42:19.938Z,-2.06
2018-02-08T01:43:26.465Z,-2.10
2018-02-08T01:44:30.947Z,-2.13
2018-02-08T01:45:36.466Z,-2.08
2018-02-08T01:46:41.964Z,-2.16
2018-02-08T01:47:47.446Z,-2.13
2018-02-08T01:48:52.958Z,-2.11
2018-02-08T01:49:59.480Z,-2.16
2018-02-08T01:51:03.949Z,-2.06
2018-02-08T01:52:09.460Z,-2.16
2018-02-08T01:53:14.969Z,-2.20
2018-02-08T01:54:20.476Z,-2.21
2018-02-08T01:55:25.992Z,-2.17
2018-02-08T01:56:32.471Z,-2.20
2018-02-08T01:57:36.984Z,-2.23
2018-02-08T01:58:42.483Z,-2.35
2018-02-08T01:59:47.975Z,-2.17
2018-02-08T02:00:53.476Z,-2.21
2018-02-08T02:01:58.980Z,-2.28
2018-02-08T02:03:05.503Z,-2.18
2018-02-08T02:04:09.983Z,-2.26
2018-02-08T02:05:15.506Z,-2.26
2018-02-08T02:06:20.991Z,-2.24
2018-02-08T02:07:26.488Z,-2.23
2018-02-08T02:08:31.986Z,-2.29
2018-02-08T02:09:38.507Z,-2.23
2018-02-08T02:10:42.992Z,-2.20
2018-02-08T02:11:48.491Z,-2.21
2018-02-08T02:12:53.986Z,-2.29
2018-02-08T02:13:59.555Z,-2.20
2018-02-08T02:15:05.015Z,-2.29
2018-02-08T02:16:11.517Z,-2.23
2018-02-08T02:17:16.002Z,-2.26
2018-02-08T02:18:21.511Z,-2.33
2018-02-08T02:19:27.028Z,-2.20
2018-02-08T02:20:32.504Z,-2.36
2018-02-08T02:21:38.014Z,-2.33
2018-02-08T02:22:44.525Z,-2.35
2018-02-08T02:23:49.017Z,-2.38
2018-02-08T02:24:54.518Z,-2.32
2018-02-08T02:26:00.013Z,-2.35
2018-02-08T02:27:05.503Z,-2.35
2018-02-08T02:28:11.021Z,-2.39
2018-02-08T02:29:17.532Z,-2.38
2018-02-08T02:30:22.021Z,-2.33
2018-02-08T02:31:27.536Z,-2.42
2018-02-08T02:32:33.030Z,-2.36
2018-02-08T02:33:38.526Z,-2.45
2018-02-08T02:34:44.028Z,-2.50
2018-02-08T02:35:50.557Z,-2.50
2018-02-08T02:36:55.084Z,-2.39
2018-02-08T02:38:00.519Z,-2.42
2018-02-08T02:39:06.027Z,-2.47
2018-02-08T02:40:11.536Z,-2.48
2018-02-08T02:41:17.041Z,-2.53
2018-02-08T02:42:23.598Z,-2.58
2018-02-08T02:43:28.027Z,-2.47
2018-02-08T02:44:33.666Z,-2.50
2018-02-08T02:45:39.034Z,-2.56
2018-02-08T02:46:44.575Z,-2.58
2018-02-08T02:47:50.054Z,-2.54
2018-02-08T02:48:56.556Z,-2.60
2018-02-08T02:50:01.043Z,-2.58
2018-02-08T02:51:06.548Z,-2.56
2018-02-08T02:52:12.053Z,-2.51
2018-02-08T02:53:17.554Z,-2.60
2018-02-08T02:54:23.064Z,-2.58
2018-02-08T02:55:29.564Z,-2.57
2018-02-08T02:56:34.063Z,-2.60
2018-02-08T02:57:39.560Z,-2.66
2018-02-08T02:58:45.053Z,-2.58
2018-02-08T02:59:50.564Z,-2.64
2018-02-08T03:00:56.067Z,-2.69
2018-02-08T03:02:02.585Z,-2.58
2018-02-08T03:03:07.062Z,-2.66
2018-02-08T03:04:12.576Z,-2.69
2018-02-08T03:05:18.070Z,-2.63
2018-02-08T03:06:23.568Z,-2.64
2018-02-08T03:07:29.074Z,-2.63
2018-02-08T03:08:35.591Z,-2.76
2018-02-08T03:09:40.080Z,-2.69
2018-02-08T03:10:45.599Z,-2.64
2018-02-08T03:11:51.078Z,-2.68
2018-02-08T03:12:56.586Z,-2.63
2018-02-08T03:14:02.100Z,-2.64
2018-02-08T03:15:08.589Z,-2.78
2018-02-08T03:16:13.090Z,-2.72
2018-02-08T03:17:18.602Z,-2.74
2018-02-08T03:18:24.105Z,-2.60
2018-02-08T03:19:29.588Z,-2.71
2018-02-08T03:20:35.092Z,-2.74
2018-02-08T03:21:41.594Z,-2.74
2018-02-08T03:22:46.092Z,-2.75
2018-02-08T03:23:51.603Z,-2.72
2018-02-08T03:24:57.094Z,-2.66
2018-02-08T03:26:02.607Z,-2.75
2018-02-08T03:27:08.102Z,-2.71
2018-02-08T03:28:14.622Z,-2.72
2018-02-08T03:29:19.109Z,-2.76
2018-02-08T03:30:24.612Z,-2.79
2018-02-08T03:31:30.103Z,-2.85
2018-02-08T03:32:35.613Z,-2.81
2018-02-08T03:33:41.104Z,-2.87
2018-02-08T03:34:47.621Z,-2.81
2018-02-08T03:35:52.110Z,-2.86
2018-02-08T03:36:57.616Z,-2.89
2018-02-08T03:38:03.119Z,-2.86
2018-02-08T03:39:08.616Z,-2.86
2018-02-08T03:40:14.126Z,-2.82
2018-02-08T03:41:20.633Z,-2.87
2018-02-08T03:42:25.119Z,-2.86
2018-02-08T03:43:30.638Z,-2.85
2018-02-08T03:44:36.133Z,-2.82
2018-02-08T03:45:41.620Z,-2.87
2018-02-08T03:46:47.121Z,-2.85
2018-02-08T03:47:53.638Z,-2.86
2018-02-08T03:48:58.125Z,-2.92
2018-02-08T03:50:03.625Z,-2.89
2018-02-08T03:51:09.130Z,-2.93
2018-02-08T03:52:14.645Z,-2.87
2018-02-08T03:53:20.136Z,-2.93
2018-02-08T03:54:26.643Z,-2.96
2018-02-08T03:55:31.146Z,-2.99
2018-02-08T03:56:36.636Z,-2.97
2018-02-08T03:57:42.138Z,-2.94
2018-02-08T03:58:47.642Z,-2.90
2018-02-08T03:59:53.143Z,-3.00
2018-02-08T04:00:59.648Z,-2.89
2018-02-08T04:02:04.161Z,-3.05
2018-02-08T04:03:09.654Z,-3.05
2018-02-08T04:04:15.136Z,-2.90
2018-02-08T04:05:20.647Z,-3.05
2018-02-08T04:06:26.139Z,-3.00
2018-02-08T04:07:32.658Z,-2.90
2018-02-08T04:08:37.163Z,-2.90
2018-02-08T04:09:42.654Z,-2.90
2018-02-08T04:10:48.157Z,-3.07
2018-02-08T04:11:53.646Z,-2.93
2018-02-08T04:12:59.151Z,-3.04
2018-02-08T04:14:05.659Z,-2.97
2018-02-08T04:15:10.147Z,-2.99
2018-02-08T04:16:15.648Z,-2.93
2018-02-08T04:17:21.167Z,-3.07
2018-02-08T04:18:26.695Z,-3.07
2018-02-08T04:19:32.172Z,-3.00
2018-02-08T04:20:38.674Z,-2.94
2018-02-08T04:21:43.177Z,-2.96
2018-02-08T04:22:48.652Z,-3.00
2018-02-08T04:23:54.161Z,-3.07
2018-02-08T04:24:59.662Z,-2.97
2018-02-08T04:26:05.158Z,-3.04
2018-02-08T04:27:11.677Z,-3.04
2018-02-08T04:28:16.168Z,-3.00
2018-02-08T04:29:21.671Z,-3.10
2018-02-08T04:30:27.172Z,-3.13
2018-02-08T04:31:32.665Z,-3.08
2018-02-08T04:32:38.176Z,-3.11
2018-02-08T04:33:44.692Z,-3.23
2018-02-08T04:34:49.170Z,-3.11
2018-02-08T04:35:54.680Z,-3.23
2018-02-08T04:37:00.228Z,-3.23
2018-02-08T04:38:05.678Z,-3.11
2018-02-08T04:39:11.180Z,-3.17
2018-02-08T04:40:17.684Z,-3.13
2018-02-08T04:41:22.181Z,-3.14
2018-02-08T04:42:27.678Z,-3.18
2018-02-08T04:43:33.189Z,-3.15
2018-02-08T04:44:38.689Z,-3.14
2018-02-08T04:45:44.186Z,-3.20
2018-02-08T04:46:50.705Z,-3.15
2018-02-08T04:47:55.188Z,-3.23
2018-02-08T04:49:00.677Z,-3.22
2018-02-08T04:50:06.184Z,-3.10
2018-02-08T04:51:11.693Z,-3.14
2018-02-08T04:52:17.184Z,-3.11
2018-02-08T04:53:23.702Z,-3.14
2018-02-08T04:54:28.196Z,-3.20
2018-02-08T04:55:33.690Z,-3.04
2018-02-08T04:56:39.189Z,-3.20
2018-02-08T04:57:44.687Z,-3.10
2018-02-08T04:58:50.205Z,-3.20
2018-02-08T04:59:56.721Z,-3.11
2018-02-08T05:01:01.207Z,-3.14
2018-02-08T05:02:06.704Z,-3.13
2018-02-08T05:03:12.203Z,-3.26
2018-02-08T05:04:17.722Z,-3.17
2018-02-08T05:05:23.204Z,-3.22
2018-02-08T05:06:29.713Z,-3.18
2018-02-08T05:07:34.199Z,-3.25
2018-02-08T05:08:39.712Z,-3.15
2018-02-08T05:09:45.218Z,-3.22
2018-02-08T05:10:50.711Z,-3.25
2018-02-08T05:11:56.219Z,-3.20
2018-02-08T05:13:02.731Z,-3.20
2018-02-08T05:14:07.214Z,-3.29
2018-02-08T05:15:12.719Z,-3.20
2018-02-08T05:16:18.221Z,-3.17
2018-02-08T05:17:23.737Z,-3.22
2018-02-08T05:18:29.226Z,-3.23
2018-02-08T05:19:35.741Z,-3.23
2018-02-08T05:20:40.234Z,-3.22
2018-02-08T05:21:45.740Z,-3.25
2018-02-08T05:22:51.218Z,-3.22
2018-02-08T05:23:56.710Z,-3.28
2018-02-08T05:25:02.222Z,-3.28
2018-02-08T05:26:08.826Z,-3.22
2018-02-08T05:27:13.323Z,-3.29
2018-02-08T05:28:18.719Z,-3.25
2018-02-08T05:29:24.232Z,-3.32
2018-02-08T05:30:29.717Z,-3.33
2018-02-08T05:31:35.228Z,-3.33
2018-02-08T05:32:41.754Z,-3.29
2018-02-08T05:33:46.225Z,-3.28
2018-02-08T05:34:51.735Z,-3.31
2018-02-08T05:35:57.236Z,-3.25
2018-02-08T05:37:02.734Z,-3.36
2018-02-08T05:38:08.878Z,-3.31
2018-02-08T05:39:14.743Z,-3.32
2018-02-08T05:40:19.234Z,-3.38
2018-02-08T05:41:24.727Z,-3.39
2018-02-08T05:42:30.236Z,-3.39
2018-02-08T05:43:35.744Z,-3.33
2018-02-08T05:44:41.243Z,-3.38
2018-02-08T05:45:47.753Z,-3.31
2018-02-08T05:46:52.260Z,-3.35
2018-02-08T05:47:57.754Z,-3.39
2018-02-08T05:49:03.252Z,-3.36
2018-02-08T05:50:08.741Z,-3.41
2018-02-08T05:51:14.241Z,-3.44
2018-02-08T05:52:20.753Z,-3.36
2018-02-08T05:53:25.243Z,-3.36
2018-02-08T05:54:30.752Z,-3.38
2018-02-08T05:55:36.254Z,-3.38
2018-02-08T05:56:41.750Z,-3.41
2018-02-08T05:57:47.244Z,-3.43
2018-02-08T05:58:53.755Z,-3.44
2018-02-08T05:59:58.246Z,-3.50
2018-02-08T06:01:03.761Z,-3.47
2018-02-08T06:02:09.252Z,-3.35
2018-02-08T06:03:14.757Z,-3.46
2018-02-08T06:04:20.255Z,-3.39
2018-02-08T06:05:26.769Z,-3.50
2018-02-08T06:06:31.250Z,-3.50
2018-02-08T06:07:36.754Z,-3.46
2018-02-08T06:08:42.256Z,-3.41
2018-02-08T06:09:47.764Z,-3.36
2018-02-08T06:10:53.266Z,-3.46
2018-02-08T06:11:59.770Z,-3.46
2018-02-08T06:13:04.262Z,-3.46
2018-02-08T06:14:09.778Z,-3.35
2018-02-08T06:15:15.263Z,-3.39
2018-02-08T06:16:20.786Z,-3.36
2018-02-08T06:17:26.264Z,-3.47
2018-02-08T06:18:32.775Z,-3.46
2018-02-08T06:19:37.268Z,-3.51
2018-02-08T06:20:42.762Z,-3.44
2018-02-08T06:21:48.282Z,-3.50
2018-02-08T06:22:53.766Z,-3.49
2018-02-08T06:23:59.263Z,-3.50
2018-02-08T06:25:05.784Z,-3.47
2018-02-08T06:26:10.285Z,-3.57
2018-02-08T06:27:15.772Z,-3.51
2018-02-08T06:28:21.280Z,-3.47
2018-02-08T06:29:26.780Z,-3.50
2018-02-08T06:30:32.266Z,-3.39
2018-02-08T06:31:38.791Z,-3.53
2018-02-08T06:32:43.294Z,-3.44
2018-02-08T06:33:48.786Z,-3.49
2018-02-08T06:34:54.292Z,-3.50
2018-02-08T06:35:59.773Z,-3.50
2018-02-08T06:37:05.281Z,-3.46
2018-02-08T06:38:11.783Z,-3.51
2018-02-08T06:39:16.282Z,-3.41
2018-02-08T06:40:21.779Z,-3.46
2018-02-08T06:41:27.284Z,-3.50
2018-02-08T06:42:32.782Z,-3.50
2018-02-08T06:43:38.281Z,-3.41
2018-02-08T06:44:44.795Z,-3.50
2018-02-08T06:45:49.292Z,-3.51
2018-02-08T06:46:54.787Z,-3.46
2018-02-08T06:48:00.292Z,-3.46
2018-02-08T06:49:05.785Z,-3.46
2018-02-08T06:50:11.281Z,-3.50
2018-02-08T06:51:17.796Z,-3.50
2018-02-08T06:52:22.293Z,-3.46
2018-02-08T06:53:27.790Z,-3.43
2018-02-08T06:54:33.298Z,-3.53
2018-02-08T06:55:38.788Z,-3.39
2018-02-08T06:56:44.280Z,-3.44
2018-02-08T06:57:50.803Z,-3.43
2018-02-08T06:58:55.293Z,-3.38
2018-02-08T07:00:00.799Z,-3.46
2018-02-08T07:01:06.308Z,-3.43
2018-02-08T07:02:11.840Z,-3.49
2018-02-08T07:03:17.292Z,-3.39
2018-02-08T07:04:23.798Z,-3.36
2018-02-08T07:05:28.312Z,-3.47
2018-02-08T07:06:33.839Z,-3.46
2018-02-08T07:07:39.300Z,-3.47
2018-02-08T07:08:44.803Z,-3.31
2018-02-08T07:09:50.311Z,-3.31
2018-02-08T07:10:56.805Z,-3.31
2018-02-08T07:12:01.312Z,-3.25
2018-02-08T07:13:06.798Z,-3.20
2018-02-08T07:14:12.294Z,-3.22
2018-02-08T07:15:17.795Z,-3.22
2018-02-08T07:16:23.315Z,-3.20
2018-02-08T07:17:29.823Z,-3.13
2018-02-08T07:18:34.306Z,-3.10
2018-02-08T07:19:39.804Z,-3.07
2018-02-08T07:20:45.310Z,-3.02
2018-02-08T07:21:50.824Z,-3.04
2018-02-08T07:22:56.307Z,-3.08
2018-02-08T07:24:02.832Z,-3.00
2018-02-08T07:25:07.313Z,-3.02
2018-02-08T07:26:12.816Z,-3.07
2018-02-08T07:27:18.317Z,-3.08
2018-02-08T07:28:23.824Z,-3.05
2018-02-08T07:29:29.312Z,-2.93
2018-02-08T07:30:35.839Z,-2.94
2018-02-08T07:31:40.321Z,-2.94
2018-02-08T07:32:45.820Z,-2.90
2018-02-08T07:33:51.312Z,-2.87
2018-02-08T07:34:56.833Z,-2.89
2018-02-08T07:36:02.337Z,-2.92
2018-02-08T07:37:08.827Z,-2.82
2018-02-08T07:38:13.408Z,-2.76
2018-02-08T07:39:18.835Z,-2.89
2018-02-08T07:40:24.333Z,-2.81
2018-02-08T07:41:29.905Z,-2.66
2018-02-08T07:42:35.336Z,-2.69
2018-02-08T07:43:41.835Z,-2.71
2018-02-08T07:44:46.343Z,-2.61
2018-02-08T07:45:51.822Z,-2.68
2018-02-08T07:46:57.332Z,-2.61
2018-02-08T07:48:02.843Z,-2.64
2018-02-08T07:49:08.332Z,-2.61
2018-02-08T07:50:14.841Z,-2.64
2018-02-08T07:51:19.332Z,-2.54
2018-02-08T07:52:24.857Z,-2.60
2018-02-08T07:53:30.336Z,-2.61
2018-02-08T07:54:35.853Z,-2.50
2018-02-08T07:55:41.332Z,-2.48
2018-02-08T07:56:47.863Z,-2.40
2018-02-08T07:57:52.351Z,-2.45
2018-02-08T07:58:57.846Z,-2.32
2018-02-08T08:00:03.362Z,-2.23
2018-02-08T08:01:08.857Z,-2.36
2018-02-08T08:02:14.359Z,-2.16
2018-02-08T08:03:20.860Z,-2.16
2018-02-08T08:04:25.356Z,-2.18
2018-02-08T08:05:30.856Z,-2.02
2018-02-08T08:06:36.356Z,-2.06
2018-02-08T08:07:41.855Z,-1.96
2018-02-08T08:08:47.351Z,-1.99
2018-02-08T08:09:53.889Z,-1.96
2018-02-08T08:10:58.383Z,-1.90
2018-02-08T08:12:03.879Z,-1.88
2018-02-08T08:13:09.383Z,-1.84
2018-02-08T08:14:14.899Z,-1.80
2018-02-08T08:15:20.960Z,-1.75
2018-02-08T08:16:28.207Z,-1.82
2018-02-08T08:17:32.186Z,-1.74
2018-02-08T08:18:37.664Z,-1.70
2018-02-08T08:19:43.306Z,-1.64
2018-02-08T08:20:48.932Z,-1.67
2018-02-08T08:21:54.000Z,-1.59
2018-02-08T08:23:00.561Z,-1.59
2018-02-08T08:24:04.386Z,-1.57
2018-02-08T08:25:09.888Z,-1.42
2018-02-08T08:26:16.125Z,-1.49
2018-02-08T08:27:20.886Z,-1.39
2018-02-08T08:28:26.397Z,-1.38
2018-02-08T08:29:32.914Z,-1.33
2018-02-08T08:30:37.382Z,-1.24
2018-02-08T08:31:42.994Z,-1.25
2018-02-08T08:32:48.423Z,-1.09
2018-02-08T08:33:53.906Z,-1.27
2018-02-08T08:34:59.424Z,-1.07
2018-02-08T08:36:05.928Z,-1.00
2018-02-08T08:37:10.416Z,-0.99
2018-02-08T08:38:15.940Z,-0.97
2018-02-08T08:39:21.426Z,-1.00
2018-02-08T08:40:26.919Z,-0.94
2018-02-08T08:41:32.419Z,-0.99
2018-02-08T08:42:38.921Z,-0.86
2018-02-08T08:43:43.412Z,-0.87
2018-02-08T08:44:48.930Z,-0.73
2018-02-08T08:45:54.413Z,-0.69
2018-02-08T08:46:59.937Z,-0.69
2018-02-08T08:48:05.427Z,-0.65
2018-02-08T08:49:11.942Z,-0.68
2018-02-08T08:50:16.437Z,-0.55
2018-02-08T08:51:21.924Z,-0.51
2018-02-08T08:52:27.443Z,-0.55
2018-02-08T08:53:32.956Z,-0.42
2018-02-08T08:54:38.450Z,-0.48
2018-02-08T08:55:44.962Z,-0.44
2018-02-08T08:56:49.440Z,-0.31
2018-02-08T08:57:54.966Z,-0.24
2018-02-08T08:59:00.462Z,-0.31
2018-02-08T09:00:05.949Z,-0.29
2018-02-08T09:01:11.450Z,-0.36
2018-02-08T09:02:17.991Z,-0.23
2018-02-08T09:03:22.464Z,-0.29
2018-02-08T09:04:27.979Z,-0.15
2018-02-08T09:05:33.489Z,-0.09
2018-02-08T09:06:38.961Z,-0.01
2018-02-08T09:07:44.475Z,-0.12
2018-02-08T09:08:50.995Z,-0.06
2018-02-08T09:09:55.472Z,0.10
2018-02-08T09:11:00.979Z,0.05
2018-02-08T09:12:06.520Z,0.16
2018-02-08T09:13:11.999Z,0.13
2018-02-08T09:14:17.485Z,0.27
2018-02-08T09:15:24.009Z,0.34
2018-02-08T09:16:28.502Z,0.34
2018-02-08T09:19:24.233Z,0.43
2018-02-08T09:20:23.608Z,0.48
2018-02-08T09:21:15.441Z,0.51
2018-02-08T09:22:23.132Z,0.58
2018-02-08T09:24:39.526Z,0.71
2018-02-08T09:25:45.166Z,0.75
2018-02-08T09:27:54.908Z,0.80
2018-02-08T09:28:44.161Z,0.75
2018-02-08T09:30:08.849Z,0.76
2018-02-08T09:31:17.865Z,0.85
2018-02-08T09:32:24.737Z,0.88
2018-02-08T09:33:18.086Z,0.94
2018-02-08T09:34:38.616Z,0.89
2018-02-08T09:35:38.784Z,0.88
2018-02-08T09:36:45.652Z,0.86
2018-02-08T09:37:37.570Z,0.92
2018-02-08T09:38:50.484Z,0.94
2018-02-08T09:39:58.575Z,0.98
2018-02-08T09:42:01.970Z,0.98
2018-02-08T09:43:16.620Z,1.01
2018-02-08T09:44:28.299Z,0.98
2018-02-08T09:45:13.561Z,1.03
2018-02-08T09:46:27.910Z,1.03
2018-02-08T09:47:33.337Z,1.10
2018-02-08T09:49:35.407Z,1.15
2018-02-08T09:50:52.714Z,1.08
2018-02-08T09:51:52.826Z,1.15
2018-02-08T09:52:59.895Z,1.21
2018-02-08T09:54:12.112Z,1.16
2018-02-08T09:55:15.268Z,1.14
2018-02-08T09:56:14.559Z,1.15
2018-02-08T09:57:23.683Z,1.18
2018-02-08T09:58:18.464Z,1.21
2018-02-08T09:59:28.506Z,1.26
2018-02-08T10:00:33.634Z,1.25
2018-02-08T10:01:39.583Z,1.29
2018-02-08T10:02:42.863Z,1.28
2018-02-08T10:03:48.297Z,1.33
2018-02-08T10:07:00.504Z,1.33
2018-02-08T10:08:11.878Z,1.33
2018-02-08T10:09:21.509Z,1.32
2018-02-08T10:10:23.258Z,1.34
2018-02-08T10:12:41.810Z,1.46
2018-02-08T10:13:51.542Z,1.51
2018-02-08T10:14:40.113Z,1.54
2018-02-08T10:15:51.248Z,1.50
2018-02-08T10:18:04.266Z,1.60
2018-02-08T10:19:09.293Z,1.60
2018-02-08T10:20:10.834Z,1.65
2018-02-08T10:21:19.035Z,1.55
2018-02-08T10:23:39.424Z,1.65
2018-02-08T10:24:36.364Z,1.65
2018-02-08T10:25:37.594Z,1.76
2018-02-08T10:26:41.188Z,1.76
2018-02-08T10:28:05.463Z,1.78
2018-02-08T10:29:02.397Z,1.82
2018-02-08T10:30:07.421Z,1.94
2018-02-08T10:31:10.297Z,1.87
2018-02-08T10:32:12.462Z,1.94
2018-02-08T10:34:27.522Z,1.94
2018-02-08T10:35:35.208Z,2.04
2018-02-08T10:36:37.466Z,2.10
2018-02-08T10:37:44.644Z,2.10
2018-02-08T10:38:45.878Z,2.10
2018-02-08T10:40:01.451Z,2.15
2018-02-08T10:40:57.569Z,2.09
2018-02-08T10:42:17.138Z,2.17
2018-02-08T10:43:09.876Z,2.15
2018-02-08T10:44:18.682Z,2.13
2018-02-08T10:45:21.249Z,2.19
2018-02-08T10:47:36.929Z,2.20
2018-02-08T10:48:32.532Z,2.27
2018-02-08T10:49:39.606Z,2.33
2018-02-08T10:50:52.927Z,2.31
2018-02-08T10:53:05.841Z,2.40
2018-02-08T10:54:08.715Z,2.45
2018-02-08T10:55:10.975Z,2.51
2018-02-08T10:56:21.018Z,2.53
2018-02-08T10:57:26.656Z,2.66
2018-02-08T10:58:34.959Z,2.64
2018-02-08T10:59:35.784Z,2.63
2018-02-08T11:00:34.974Z,2.64
2018-02-08T11:01:53.011Z,2.69
2018-02-08T11:02:58.539Z,2.77
2018-02-08T11:03:54.149Z,2.73
2018-02-08T11:05:08.793Z,2.74
2018-02-08T11:06:12.281Z,2.81
2018-02-08T11:07:19.865Z,2.77
2018-02-08T11:08:21.614Z,2.77
2018-02-08T11:09:29.407Z,2.88
2018-02-08T11:11:36.184Z,2.88
2018-02-08T11:12:46.014Z,2.91
2018-02-08T11:13:52.881Z,3.02
2018-02-08T11:14:59.339Z,3.02
2018-02-08T11:16:01.087Z,3.09
2018-02-08T11:18:21.889Z,3.23
2018-02-08T11:19:16.782Z,3.21
2018-02-08T11:20:39.213Z,3.40
2018-02-08T11:21:18.939Z,3.36
2018-02-08T11:25:00.844Z,3.49
2018-02-08T11:26:10.784Z,3.44
2018-02-08T11:26:54.916Z,3.61
2018-02-08T11:28:21.036Z,3.64
2018-02-08T11:29:06.626Z,3.68
2018-02-08T11:30:39.791Z,3.72
2018-02-08T11:31:41.129Z,3.80
2018-02-08T11:32:41.748Z,3.88
2018-02-08T11:33:42.986Z,3.88
2018-02-08T11:34:37.156Z,3.96
2018-02-08T11:36:03.076Z,4.06
2018-02-08T11:37:31.344Z,3.89
2018-02-08T11:38:25.408Z,3.94
2018-02-08T11:39:58.284Z,3.97
2018-02-08T11:40:54.636Z,3.98
2018-02-08T11:41:42.637Z,4.04
2018-02-08T11:44:11.733Z,4.24
2018-02-08T11:45:11.133Z,4.14
2018-02-08T11:46:13.285Z,4.24
2018-02-08T11:47:31.416Z,4.14
2018-02-08T11:48:43.303Z,4.25
2018-02-08T11:49:23.135Z,4.36
2018-02-08T11:50:41.874Z,4.34
2018-02-08T11:51:44.237Z,4.39
2018-02-08T11:52:47.631Z,4.51
2018-02-08T11:53:35.957Z,4.40
2018-02-08T11:54:41.500Z,4.29
2018-02-08T11:55:48.744Z,4.34
2018-02-08T11:57:02.498Z,4.29
2018-02-08T11:58:57.393Z,4.37
2018-02-08T12:00:12.358Z,4.34
2018-02-08T12:01:26.698Z,4.37
2018-02-08T12:02:24.754Z,4.36
2018-02-08T12:03:30.908Z,4.50
2018-02-08T12:04:30.726Z,4.50
2018-02-08T12:05:43.004Z,4.37
2018-02-08T12:06:49.468Z,4.44
2018-02-08T12:07:59.811Z,4.51
2018-02-08T12:09:08.728Z,4.59
2018-02-08T12:10:06.080Z,4.57
2018-02-08T12:11:19.090Z,4.54
2018-02-08T12:12:36.143Z,4.54
2018-02-08T12:14:23.825Z,4.79
2018-02-08T12:15:31.102Z,4.88
2018-02-08T12:17:42.678Z,5.01
2018-02-08T12:18:58.636Z,5.04
2018-02-08T12:19:55.594Z,5.07
2018-02-08T12:20:54.371Z,4.99
2018-02-08T12:21:55.505Z,4.91
2018-02-08T12:23:12.827Z,4.92
2018-02-08T12:25:12.731Z,4.91
2018-02-08T12:26:20.829Z,4.96
2018-02-08T12:27:29.948Z,4.92
2018-02-08T12:28:26.472Z,4.95
2018-02-08T12:29:41.737Z,5.04
2018-02-08T12:30:40.515Z,4.98
2018-02-08T12:31:47.689Z,4.80
2018-02-08T12:34:05.733Z,4.84
2018-02-08T12:35:03.994Z,5.02
2018-02-08T12:36:10.655Z,5.20
2018-02-08T12:37:18.547Z,5.27
2018-02-08T12:38:11.294Z,5.48
2018-02-08T12:39:31.157Z,5.49
2018-02-08T12:40:31.880Z,5.70
2018-02-08T12:41:29.429Z,5.91
2018-02-08T12:42:37.837Z,6.19
2018-02-08T12:43:48.903Z,6.65
2018-02-08T12:44:55.052Z,6.99
2018-02-08T12:45:57.516Z,7.41
2018-02-08T12:46:58.547Z,7.94
2018-02-08T12:49:06.652Z,9.53
2018-02-08T12:50:12.443Z,10.68
2018-02-08T12:51:20.487Z,11.56
2018-02-08T12:52:33.297Z,12.52
2018-02-08T12:55:04.543Z,13.59
2018-02-08T12:55:57.903Z,14.24
2018-02-08T12:57:07.423Z,14.65
2018-02-08T12:57:55.039Z,15.24
2018-02-08T12:59:02.932Z,16.00
2018-02-08T13:00:03.860Z,16.45
2018-02-08T13:01:21.376Z,16.25
2018-02-08T13:03:21.391Z,16.95
2018-02-08T13:06:46.398Z,18.18
2018-02-08T13:07:54.499Z,18.37
2018-02-08T13:10:01.372Z,18.95
2018-02-08T13:11:21.038Z,19.20
2018-02-08T13:12:13.984Z,19.60
2018-02-08T13:13:10.197Z,19.97
2018-02-08T13:14:21.160Z,20.25
2018-02-08T13:15:24.553Z,20.64
2018-02-08T13:16:34.289Z,20.91
2018-02-08T13:17:27.950Z,21.08
2018-02-08T13:18:34.194Z,20.91
2018-02-08T13:19:42.087Z,20.53
2018-02-08T13:21:05.553Z,19.97
2018-02-08T13:22:05.037Z,19.43
2018-02-08T13:23:14.055Z,18.29
2018-02-08T13:25:19.194Z,16.96
2018-02-08T13:27:38.249Z,16.11
2018-02-08T13:28:40.816Z,15.78
2018-02-08T13:29:37.957Z,15.49
2018-02-08T13:30:45.340Z,15.20
2018-02-08T13:32:57.229Z,14.86
2018-02-08T13:33:57.645Z,14.94
2018-02-08T13:35:05.234Z,15.03
2018-02-08T13:36:13.028Z,15.08
2018-02-08T13:37:15.279Z,14.87
2018-02-08T13:38:15.184Z,14.57
2018-02-08T13:39:27.990Z,14.90
2018-02-08T13:40:34.550Z,15.39
2018-02-08T13:41:37.323Z,15.85
2018-02-08T13:42:36.920Z,16.04
2018-02-08T13:43:50.043Z,16.34
2018-02-08T13:44:57.013Z,16.42
2018-02-08T13:45:53.436Z,16.44
2018-02-08T13:48:04.301Z,15.94
2018-02-08T13:49:09.017Z,15.78
2018-02-08T13:50:19.407Z,15.54
2018-02-08T13:51:20.804Z,15.27
2018-02-08T13:52:40.881Z,15.19
2018-02-08T13:53:35.672Z,15.24
2018-02-08T13:54:52.365Z,15.52
2018-02-08T13:56:00.366Z,15.85
2018-02-08T13:57:08.968Z,16.14
2018-02-08T13:57:56.993Z,16.53
2018-02-08T13:59:10.722Z,17.00
2018-02-08T14:00:02.339Z,17.41
2018-02-08T14:01:15.344Z,17.59
2018-02-08T14:02:21.393Z,18.15
2018-02-08T14:03:32.050Z,19.28
2018-02-08T14:05:33.805Z,21.06
2018-02-08T14:07:46.926Z,22.60
2018-02-08T14:11:19.312Z,21.02
2018-02-08T14:12:01.392Z,20.51
2018-02-08T14:14:27.520Z,20.58
2018-02-08T14:15:35.423Z,20.47
2018-02-08T14:16:40.946Z,20.77
2018-02-08T14:17:40.853Z,20.81
2018-02-08T14:18:56.424Z,20.89
2018-02-08T14:19:49.364Z,20.46
2018-02-08T14:20:55.414Z,19.93
2018-02-08T14:21:59.429Z,19.33
2018-02-08T14:23:10.589Z,18.67
2018-02-08T14:24:28.685Z,18.03
2018-02-08T14:25:23.191Z,17.43
2018-02-08T14:26:27.396Z,17.26
2018-02-08T14:27:26.072Z,17.18
2018-02-08T14:28:37.344Z,16.99
2018-02-08T14:29:39.400Z,16.62
2018-02-08T14:30:47.699Z,15.92
2018-02-08T14:31:52.827Z,14.90
2018-02-08T14:32:55.393Z,14.04
2018-02-08T14:35:00.324Z,12.79
2018-02-08T14:36:16.203Z,12.09
2018-02-08T14:38:59.842Z,10.95
2018-02-08T14:41:41.838Z,9.88
2018-02-08T14:42:48.811Z,9.46
2018-02-08T14:43:56.496Z,9.27
2018-02-08T14:46:22.694Z,8.83
2018-02-08T14:47:47.104Z,8.57
2018-02-08T14:48:09.325Z,8.17
2018-02-08T14:49:18.038Z,7.89
2018-02-08T14:50:23.062Z,7.72
2018-02-08T14:51:27.985Z,7.58
2018-02-08T14:52:35.462Z,7.53
2018-02-08T14:53:36.095Z,7.27
2018-02-08T14:54:50.943Z,7.22
2018-02-08T14:55:52.072Z,6.91
2018-02-08T14:57:05.907Z,6.71
2018-02-08T14:57:58.445Z,6.69